Time;durP1;ratioP1;P1;durP2;ratioP2;P2;SDS_P1;SDS_P2;PMS_P1;PMS_P2;Temp;Humidity;BMP_temperature;BMP_pressure;BME280_temperature;BME280_humidity;BME280_pressure;Samples;Min_cycle;Max_cycle;Signal;HPM_P1;HPM_P2
2023/04/25 00:02:03;;;;;;;8.70;4.45;;;;;;;12.19;83.26;94488.22;5050814;28;20036;-76
2023/04/25 00:04:29;;;;;;;7.25;3.85;;;;;;;12.40;83.54;94509.81;5051023;28;20366;-76
2023/04/25 00:06:55;;;;;;;6.97;4.50;;;;;;;12.56;82.87;94505.72;5060815;28;20037;-77
2023/04/25 00:09:21;;;;;;;8.27;4.35;;;;;;;12.67;83.43;94506.25;5048804;28;20111;-76
2023/04/25 00:11:47;;;;;;;7.47;4.63;;;;;;;12.64;83.74;94481.06;5033067;28;20266;-76
2023/04/25 00:14:12;;;;;;;7.90;4.57;;;;;;;12.52;83.09;94443.56;5048931;28;20141;-77
2023/04/25 00:16:38;;;;;;;7.97;4.32;;;;;;;12.72;82.50;94459.06;5050235;28;20083;-76
2023/04/25 00:19:04;;;;;;;9.00;5.07;;;;;;;12.51;82.24;94422.63;5050510;28;20112;-76
2023/04/25 00:21:31;;;;;;;10.35;4.57;;;;;;;12.73;82.50;94446.53;5051571;28;20157;-76
2023/04/25 00:23:57;;;;;;;6.53;4.75;;;;;;;12.83;82.89;94459.56;5069008;28;20040;-76
2023/04/25 00:26:22;;;;;;;6.47;5.47;;;;;;;12.64;82.55;94443.03;5068703;28;20028;-76
2023/04/25 00:28:48;;;;;;;6.15;5.35;;;;;;;12.72;82.04;94455.63;5070017;28;20534;-76
2023/04/25 00:31:14;;;;;;;10.18;5.75;;;;;;;12.57;83.06;94446.13;5068571;28;20575;-76
2023/04/25 00:33:39;;;;;;;6.38;5.28;;;;;;;12.46;81.80;94434.16;5070293;28;20456;-76
2023/04/25 00:36:06;;;;;;;7.47;5.13;;;;;;;12.51;81.32;94444.66;5068478;28;20048;-76
2023/04/25 00:38:31;;;;;;;7.63;4.78;;;;;;;12.27;81.47;94423.72;5068136;28;20440;-76
2023/04/25 00:40:57;;;;;;;7.07;5.20;;;;;;;12.49;81.21;94465.47;5070269;28;20461;-76
2023/04/25 00:43:26;;;;;;;8.55;5.22;;;;;;;12.06;80.96;94379.28;5052184;28;20033;-77
2023/04/25 00:45:52;;;;;;;8.68;5.72;;;;;;;12.53;81.59;94452.34;5065865;28;20071;-76
2023/04/25 00:48:18;;;;;;;7.53;5.22;;;;;;;12.17;81.79;94402.69;5068043;28;20055;-76
2023/04/25 00:50:56;;;;;;;10.20;4.97;;;;;;;12.46;81.54;94451.97;5069096;28;20032;-76
2023/04/25 00:53:23;;;;;;;6.55;5.35;;;;;;;12.25;81.35;94427.75;5049523;28;20040;-76
2023/04/25 00:55:53;;;;;;;6.57;4.45;;;;;;;12.43;80.67;94449.94;5051601;28;20398;-76
2023/04/25 00:58:19;;;;;;;6.28;4.85;;;;;;;12.50;81.52;94444.97;5066679;28;20801;-75
2023/04/25 01:00:47;;;;;;;13.52;5.78;;;;;;;11.72;81.44;94319.47;5059380;28;20056;-76
2023/04/25 01:03:13;;;;;;;7.25;4.28;;;;;;;12.18;81.29;94409.56;5054449;28;20457;-76
2023/04/25 01:05:41;;;;;;;10.60;5.60;;;;;;;12.15;81.04;94414.69;5057700;28;20056;-76
2023/04/25 01:08:07;;;;;;;8.75;5.03;;;;;;;12.35;81.32;94465.53;5059203;28;20090;-76
2023/04/25 01:10:32;;;;;;;6.15;4.97;;;;;;;12.18;82.07;94406.91;5059114;28;20064;-76
2023/04/25 01:12:58;;;;;;;8.43;5.47;;;;;;;12.29;81.38;94402.91;5061317;28;20035;-76
2023/04/25 01:15:24;;;;;;;10.98;5.70;;;;;;;12.59;80.95;94432.50;5069371;28;20550;-76
2023/04/25 01:17:50;;;;;;;8.30;5.93;;;;;;;12.53;81.40;94407.13;5068773;28;20037;-76
2023/04/25 01:20:15;;;;;;;7.18;5.53;;;;;;;12.63;81.30;94422.84;5048509;28;20048;-75
2023/04/25 01:22:41;;;;;;;8.20;5.75;;;;;;;12.28;81.57;94376.66;5049857;28;20115;-76
2023/04/25 01:25:08;;;;;;;12.45;5.32;;;;;;;12.21;81.45;94365.63;5050072;28;20476;-76
2023/04/25 01:27:35;;;;;;;9.82;4.43;;;;;;;12.71;81.20;94424.78;5050374;28;20052;-76
2023/04/25 01:30:00;;;;;;;8.20;4.72;;;;;;;12.34;80.25;94396.69;5047308;28;20035;-76
2023/04/25 01:32:26;;;;;;;6.93;4.93;;;;;;;12.61;80.89;94415.16;5048851;28;20032;-76
2023/04/25 01:34:52;;;;;;;6.00;4.80;;;;;;;12.60;81.22;94405.59;5053518;28;20024;-76
2023/04/25 01:37:18;;;;;;;9.68;5.53;;;;;;;12.63;81.28;94409.53;5069883;28;20120;-76
2023/04/25 01:39:44;;;;;;;5.65;4.60;;;;;;;12.46;80.94;94385.50;5065957;28;20188;-76
2023/04/25 01:42:09;;;;;;;7.05;5.10;;;;;;;12.63;79.86;94420.97;5068297;28;20040;-76
2023/04/25 01:44:35;;;;;;;5.78;4.82;;;;;;;12.63;79.54;94425.50;5055396;28;20147;-76
2023/04/25 01:47:00;;;;;;;5.63;4.72;;;;;;;12.33;79.51;94368.53;5048330;28;20091;-75
2023/04/25 01:49:26;;;;;;;10.75;4.68;;;;;;;12.16;79.68;94329.34;5049114;28;20032;-76
2023/04/25 01:51:51;;;;;;;8.57;5.65;;;;;;;12.52;79.28;94422.31;5062706;28;20043;-76
2023/04/25 01:54:18;;;;;;;8.20;6.53;;;;;;;12.26;78.90;94387.56;5068122;28;20059;-75
2023/04/25 01:56:43;;;;;;;10.05;6.50;;;;;;;12.23;79.81;94429.91;5068067;28;20151;-75
2023/04/25 01:59:09;;;;;;;8.68;5.72;;;;;;;12.12;79.39;94413.44;5064323;28;20555;-75
2023/04/25 02:01:34;;;;;;;8.52;5.30;;;;;;;12.11;79.79;94395.13;5049074;28;20124;-76
2023/04/25 02:03:59;;;;;;;7.47;5.75;;;;;;;12.29;79.15;94424.19;5049278;28;20025;-75
2023/04/25 02:06:25;;;;;;;12.15;5.30;;;;;;;12.19;79.31;94407.69;5047108;28;20446;-76
2023/04/25 02:08:50;;;;;;;10.32;4.90;;;;;;;12.18;79.84;94408.78;5047224;28;20053;-76
2023/04/25 02:11:16;;;;;;;6.60;4.22;;;;;;;12.14;79.87;94391.84;5046957;28;20044;-76
2023/04/25 02:13:41;;;;;;;6.38;4.30;;;;;;;12.06;80.86;94372.09;5050264;28;20021;-76
2023/04/25 02:16:07;;;;;;;8.32;5.20;;;;;;;12.34;80.51;94410.78;5051291;28;20090;-76
2023/04/25 02:18:32;;;;;;;9.55;5.35;;;;;;;11.84;81.38;94356.94;5051385;28;20090;-75
2023/04/25 02:20:59;;;;;;;8.18;5.50;;;;;;;12.34;80.27;94418.75;5052342;28;20124;-75
2023/04/25 02:23:25;;;;;;;11.70;5.18;;;;;;;12.26;79.82;94389.44;5058200;28;20082;-75
2023/04/25 02:25:51;;;;;;;7.00;4.97;;;;;;;12.19;79.46;94370.47;5071047;28;20029;-76
2023/04/25 02:28:17;;;;;;;7.88;5.45;;;;;;;12.22;79.94;94364.53;5065579;28;20048;-75
2023/04/25 02:30:42;;;;;;;12.15;6.05;;;;;;;12.35;80.47;94390.31;5072286;28;20036;-76
2023/04/25 02:33:08;;;;;;;8.05;5.00;;;;;;;11.93;80.15;94331.22;5064489;28;20043;-75
2023/04/25 02:35:33;;;;;;;7.47;6.15;;;;;;;12.17;79.91;94362.81;5071075;28;20036;-75
2023/04/25 02:37:58;;;;;;;7.28;5.15;;;;;;;12.18;79.75;94355.63;5051184;28;20036;-75
2023/04/25 02:40:27;;;;;;;8.23;6.00;;;;;;;12.34;80.09;94384.19;5067980;28;20478;-76
2023/04/25 02:42:52;;;;;;;11.23;6.07;;;;;;;12.11;79.72;94348.06;5071994;28;20093;-75
2023/04/25 02:45:18;;;;;;;10.90;5.68;;;;;;;12.07;79.17;94338.34;5066503;28;20120;-75
2023/04/25 02:47:43;;;;;;;7.43;5.80;;;;;;;12.22;78.44;94380.50;5052089;28;20491;-75
2023/04/25 02:50:09;;;;;;;9.63;5.40;;;;;;;12.22;78.39;94377.84;5051942;28;20166;-75
2023/04/25 02:52:34;;;;;;;6.90;5.13;;;;;;;11.97;78.24;94344.69;5053872;28;20029;-75
2023/04/25 02:54:59;;;;;;;7.60;5.40;;;;;;;12.15;78.26;94374.81;5070642;28;21264;-76
2023/04/25 02:57:25;;;;;;;10.13;5.90;;;;;;;11.92;78.75;94344.78;5062875;28;20111;-76
2023/04/25 02:59:50;;;;;;;9.15;6.32;;;;;;;11.86;79.78;94333.50;5070555;28;20044;-76
2023/04/25 03:02:16;;;;;;;9.40;5.68;;;;;;;12.10;80.11;94373.06;5070269;28;20032;-76
2023/04/25 03:04:41;;;;;;;7.68;5.28;;;;;;;11.86;78.86;94351.31;5071606;28;20037;-75
2023/04/25 03:07:07;;;;;;;7.32;4.97;;;;;;;12.02;78.81;94371.13;5055057;28;20194;-75
2023/04/25 03:09:32;;;;;;;10.70;6.03;;;;;;;12.02;79.45;94373.00;5051353;28;20063;-76
2023/04/25 03:11:57;;;;;;;6.80;5.65;;;;;;;11.88;79.69;94355.25;5063002;28;20086;-76
2023/04/25 03:14:23;;;;;;;13.52;6.00;;;;;;;11.86;79.82;94348.66;5051354;28;20041;-75
2023/04/25 03:16:48;;;;;;;10.98;6.20;;;;;;;11.78;79.22;94346.72;5049761;28;20043;-75
2023/04/25 03:19:15;;;;;;;7.65;5.40;;;;;;;11.80;79.29;94352.53;5050137;28;20048;-75
2023/04/25 03:21:41;;;;;;;12.38;6.55;;;;;;;11.90;79.58;94368.25;5056882;28;20035;-76
2023/04/25 03:24:06;;;;;;;9.70;7.05;;;;;;;11.85;80.48;94360.38;5051273;28;20028;-75
2023/04/25 03:26:32;;;;;;;10.45;6.50;;;;;;;11.77;79.95;94351.25;5060906;28;20051;-75
2023/04/25 03:28:57;;;;;;;11.25;7.00;;;;;;;11.78;79.48;94338.75;5061693;28;20029;-75
2023/04/25 03:31:23;;;;;;;15.10;7.18;;;;;;;11.92;80.35;94366.03;5055051;28;20040;-75
2023/04/25 03:33:48;;;;;;;9.52;7.07;;;;;;;11.91;80.83;94359.94;5071362;28;20522;-76
2023/04/25 03:36:14;;;;;;;11.15;6.93;;;;;;;11.75;80.92;94352.66;5071205;28;20191;-76
2023/04/25 03:38:41;;;;;;;8.38;6.03;;;;;;;11.90;80.02;94361.03;5063250;28;20036;-76
2023/04/25 03:41:06;;;;;;;9.05;6.93;;;;;;;11.77;81.04;94347.81;5071559;28;20040;-75
2023/04/25 03:43:32;;;;;;;8.95;6.60;;;;;;;11.63;81.08;94315.94;5053305;28;20098;-76
2023/04/25 03:45:57;;;;;;;9.85;6.78;;;;;;;11.82;80.42;94345.03;5062184;28;20059;-76
2023/04/25 03:48:24;;;;;;;10.05;6.68;;;;;;;11.98;80.76;94365.63;5070881;28;20036;-75
2023/04/25 03:50:50;;;;;;;10.55;6.38;;;;;;;11.85;80.08;94345.22;5066870;28;20037;-75
2023/04/25 03:53:15;;;;;;;7.60;5.57;;;;;;;11.87;80.09;94337.75;5065602;28;20124;-76
2023/04/25 03:55:41;;;;;;;8.20;6.45;;;;;;;11.71;80.98;94306.47;5069540;28;20465;-76
2023/04/25 03:58:08;;;;;;;12.45;6.90;;;;;;;11.69;81.45;94320.06;5052884;28;20462;-76
2023/04/25 04:00:34;;;;;;;9.02;6.45;;;;;;;11.58;81.09;94330.13;5050573;28;20095;-75
2023/04/25 04:02:59;;;;;;;11.00;7.03;;;;;;;11.90;81.32;94360.28;5050723;28;20083;-76
2023/04/25 04:05:24;;;;;;;9.75;7.20;;;;;;;12.04;81.48;94365.53;5065117;28;20040;-76
2023/04/25 04:07:50;;;;;;;14.98;7.50;;;;;;;11.88;82.01;94347.28;5062521;28;20420;-76
2023/04/25 04:10:15;;;;;;;10.38;7.75;;;;;;;12.01;81.71;94358.94;5055425;28;20039;-76
2023/04/25 04:12:41;;;;;;;12.05;8.60;;;;;;;11.83;82.23;94322.69;5054008;28;20032;-76
2023/04/25 04:15:07;;;;;;;15.23;9.60;;;;;;;12.02;81.45;94365.03;5061096;28;20553;-76
2023/04/25 04:17:33;;;;;;;14.43;9.35;;;;;;;12.07;82.33;94347.09;5060629;28;20043;-76
2023/04/25 04:19:58;;;;;;;14.05;8.77;;;;;;;12.12;81.87;94349.66;5034450;28;20068;-77
2023/04/25 04:22:24;;;;;;;13.98;9.60;;;;;;;12.30;80.85;94358.50;5049237;28;20040;-77
2023/04/25 04:24:49;;;;;;;14.65;9.77;;;;;;;12.44;81.77;94366.41;5053061;28;20411;-77
2023/04/25 04:27:18;;;;;;;12.88;8.27;;;;;;;12.19;81.31;94383.78;5049723;28;20368;-76
2023/04/25 04:29:45;;;;;;;11.48;8.82;;;;;;;12.07;81.21;94343.66;5046285;28;20513;-76
2023/04/25 04:32:10;;;;;;;17.45;9.55;;;;;;;12.29;81.04;94360.38;5043831;28;20094;-77
2023/04/25 04:34:35;;;;;;;10.23;8.68;;;;;;;12.55;81.17;94371.16;5041054;28;20037;-76
2023/04/25 04:37:01;;;;;;;13.77;9.18;;;;;;;12.56;80.46;94350.69;5051774;28;20028;-77
2023/04/25 04:39:27;;;;;;;11.77;9.80;;;;;;;12.54;80.57;94366.16;5054628;28;20579;-77
2023/04/25 04:41:52;;;;;;;12.23;9.23;;;;;;;12.64;79.89;94355.25;5053477;28;20383;-77
2023/04/25 04:44:17;;;;;;;15.38;10.88;;;;;;;12.55;79.81;94320.63;5051758;28;20416;-77
2023/04/25 04:46:44;;;;;;;13.18;9.57;;;;;;;12.66;80.19;94343.19;5051103;28;20127;-77
2023/04/25 04:49:10;;;;;;;12.80;10.48;;;;;;;12.70;79.27;94357.47;5055991;28;20067;-78
2023/04/25 04:51:36;;;;;;;17.95;10.90;;;;;;;12.82;79.29;94380.84;5051802;28;20040;-78
2023/04/25 04:54:02;;;;;;;15.98;10.80;;;;;;;12.80;80.45;94380.38;5057613;28;20028;-77
2023/04/25 04:56:31;;;;;;;17.75;10.57;;;;;;;12.90;80.77;94381.97;5048906;28;20326;-77
2023/04/25 04:58:57;;;;;;;16.25;10.60;;;;;;;12.56;79.94;94340.03;5053609;28;20139;-78
2023/04/25 05:01:23;;;;;;;12.65;9.25;;;;;;;12.52;79.29;94363.00;5036352;28;20047;-81
2023/04/25 05:03:49;;;;;;;14.48;10.15;;;;;;;12.65;79.65;94367.47;5051947;28;20522;-80
2023/04/25 05:06:16;;;;;;;15.30;10.20;;;;;;;12.90;79.33;94395.28;5055304;28;20028;-80
2023/04/25 05:08:42;;;;;;;16.45;11.00;;;;;;;12.87;79.16;94386.03;5046575;28;20068;-82
2023/04/25 05:11:07;;;;;;;19.73;10.73;;;;;;;13.02;78.50;94400.81;5053212;28;20123;-81
2023/04/25 05:13:33;;;;;;;20.83;12.43;;;;;;;12.31;79.22;94309.56;5058277;28;20036;-82
2023/04/25 05:15:58;;;;;;;28.85;18.05;;;;;;;12.75;79.29;94380.50;5047080;28;20100;-81
2023/04/25 05:18:23;;;;;;;20.90;12.70;;;;;;;12.50;79.93;94378.50;5050455;28;20048;-80
2023/04/25 05:20:49;;;;;;;13.93;10.70;;;;;;;11.91;79.02;94292.72;5051812;28;20047;-81
2023/04/25 05:23:15;;;;;;;16.95;11.48;;;;;;;11.40;80.55;94312.47;5053241;28;20064;-81
2023/04/25 05:25:40;;;;;;;17.35;12.57;;;;;;;11.50;83.40;94340.69;5048230;28;20052;-82
2023/04/25 05:28:06;;;;;;;19.75;12.13;;;;;;;12.21;82.38;94393.00;5052202;28;20526;-80
2023/04/25 05:30:31;;;;;;;23.73;14.60;;;;;;;11.86;82.49;94322.88;5054198;28;20625;-80
2023/04/25 05:32:57;;;;;;;19.10;11.02;;;;;;;12.00;82.86;94354.69;5072335;28;20203;-79
2023/04/25 05:35:22;;;;;;;13.05;9.73;;;;;;;11.95;82.19;94334.38;5053242;28;20029;-79
2023/04/25 05:37:48;;;;;;;17.00;8.82;;;;;;;12.44;81.78;94396.44;5047785;28;20885;-80
2023/04/25 05:40:13;;;;;;;17.75;11.10;;;;;;;12.57;81.68;94397.47;5053298;28;20059;-80
2023/04/25 05:42:39;;;;;;;14.50;9.85;;;;;;;12.35;81.81;94337.13;5051121;28;20039;-80
2023/04/25 05:45:05;;;;;;;17.05;10.73;;;;;;;12.60;80.66;94363.06;5049147;28;20047;-80
2023/04/25 05:47:31;;;;;;;15.77;9.68;;;;;;;12.86;80.07;94384.47;5051262;28;20036;-79
2023/04/25 05:49:57;;;;;;;17.25;8.90;;;;;;;12.85;80.15;94380.22;5049616;28;20038;-80
2023/04/25 05:52:22;;;;;;;11.20;7.90;;;;;;;12.59;80.20;94324.25;5049961;28;20032;-80
2023/04/25 05:54:48;;;;;;;11.05;6.75;;;;;;;12.56;79.53;94305.47;5052595;28;20462;-81
2023/04/25 05:57:24;;;;;;;12.60;7.18;;;;;;;12.51;79.40;94292.31;5050092;28;20040;-80
2023/04/25 05:59:50;;;;;;;11.98;7.00;;;;;;;12.90;79.44;94345.50;5051898;28;20036;-81
2023/04/25 06:02:18;;;;;;;8.52;6.55;;;;;;;13.24;79.31;94378.69;5049947;28;20484;-82
2023/04/25 06:04:43;;;;;;;9.70;6.88;;;;;;;13.09;78.42;94348.72;5024625;28;20452;-79
2023/04/25 06:07:09;;;;;;;13.98;7.60;;;;;;;13.03;78.72;94347.28;5047514;28;20468;-80
2023/04/25 06:09:34;;;;;;;12.27;7.55;;;;;;;12.98;78.86;94312.03;5049897;28;20536;-83
2023/04/25 06:12:00;;;;;;;11.98;6.95;;;;;;;13.56;78.47;94390.84;5044530;28;20486;-83
2023/04/25 06:14:26;;;;;;;13.55;8.00;;;;;;;13.52;77.87;94382.66;5051533;28;20039;-81
2023/04/25 06:16:51;;;;;;;9.65;6.60;;;;;;;13.63;77.19;94393.81;5052716;28;20743;-81
2023/04/25 06:19:16;;;;;;;10.88;6.53;;;;;;;13.66;76.84;94401.97;5046878;28;20045;-81
2023/04/25 06:21:43;;;;;;;13.20;8.50;;;;;;;13.38;77.25;94350.84;5047699;28;20060;-80
2023/04/25 06:24:08;;;;;;;10.63;7.70;;;;;;;13.56;76.12;94374.84;5047244;28;20040;-80
2023/04/25 06:26:37;;;;;;;16.35;7.53;;;;;;;13.63;76.03;94401.81;5046806;28;20063;-80
2023/04/25 06:29:05;;;;;;;13.63;8.43;;;;;;;13.63;76.78;94412.47;5052730;28;20043;-81
2023/04/25 06:31:36;;;;;;;13.38;8.57;;;;;;;13.44;76.63;94381.56;5051982;28;20095;-82
2023/04/25 06:34:04;;;;;;;13.05;8.38;;;;;;;12.09;76.30;94166.84;5051890;28;20087;-80
2023/04/25 06:36:30;;;;;;;14.80;9.38;;;;;;;11.74;77.21;94114.66;5048854;28;20047;-80
2023/04/25 06:38:55;;;;;;;14.45;8.65;;;;;;;13.73;77.21;94402.28;5046301;28;20633;-81
2023/04/25 06:41:21;;;;;;;12.65;9.15;;;;;;;13.51;76.75;94357.91;5049687;28;20040;-80
2023/04/25 06:43:46;;;;;;;16.75;8.20;;;;;;;12.53;76.79;94192.50;5047563;28;20111;-80
2023/04/25 06:46:12;;;;;;;13.32;7.43;;;;;;;13.75;76.01;94391.31;5049612;28;20396;-82
2023/04/25 06:48:38;;;;;;;32.08;9.18;;;;;;;14.02;75.76;94417.72;5050252;28;20028;-81
2023/04/25 06:51:03;;;;;;;16.15;7.88;;;;;;;14.09;75.13;94410.03;5044797;28;20037;-82
2023/04/25 06:53:29;;;;;;;14.40;7.35;;;;;;;13.41;73.72;94315.63;5058260;28;20115;-80
2023/04/25 06:55:54;;;;;;;15.40;7.63;;;;;;;14.11;74.07;94415.81;5052502;28;20476;-81
2023/04/25 06:58:20;;;;;;;11.93;7.72;;;;;;;13.95;74.58;94376.63;5054276;28;20151;-81
2023/04/25 07:00:45;;;;;;;15.07;9.45;;;;;;;13.73;74.33;94340.25;5054739;28;20422;-82
2023/04/25 07:03:11;;;;;;;16.23;8.23;;;;;;;14.38;73.88;94413.94;5059689;28;20097;-82
2023/04/25 07:05:37;;;;;;;14.05;7.45;;;;;;;13.64;73.84;94294.16;5060811;28;20119;-82
2023/04/25 07:08:03;;;;;;;15.02;7.80;;;;;;;14.31;73.53;94374.41;5060357;28;20053;-84
2023/04/25 07:10:28;;;;;;;15.55;8.80;;;;;;;14.38;73.96;94388.06;5058537;28;20455;-82
2023/04/25 07:12:53;;;;;;;12.52;7.60;;;;;;;13.99;73.46;94341.00;5051200;28;20483;-81
2023/04/25 07:15:19;;;;;;;14.00;8.27;;;;;;;14.20;71.16;94363.25;5055243;28;20036;-82
2023/04/25 07:17:44;;;;;;;12.32;8.18;;;;;;;14.43;72.57;94385.22;5049573;28;20414;-81
2023/04/25 07:20:10;;;;;;;10.63;6.80;;;;;;;14.59;71.35;94417.53;5058098;28;20036;-85
2023/04/25 07:22:35;;;;;;;14.48;7.25;;;;;;;13.43;71.50;94228.16;5053982;28;20045;-81
2023/04/25 07:25:01;;;;;;;11.52;7.35;;;;;;;14.67;70.97;94420.19;5058504;28;20029;-81
2023/04/25 07:27:26;;;;;;;12.40;6.97;;;;;;;14.70;70.52;94408.13;5062311;28;20036;-82
2023/04/25 07:29:52;;;;;;;13.05;7.28;;;;;;;14.22;71.34;94333.63;5055616;28;20032;-82
2023/04/25 07:32:18;;;;;;;9.02;7.38;;;;;;;14.70;71.54;94397.44;5056086;28;20045;-82
2023/04/25 07:34:43;;;;;;;16.48;8.82;;;;;;;14.21;71.85;94314.16;5057454;28;20048;-81
2023/04/25 07:37:09;;;;;;;14.27;7.95;;;;;;;14.77;71.39;94381.72;5056953;28;20198;-81
2023/04/25 07:39:34;;;;;;;13.77;8.80;;;;;;;14.51;70.66;94323.06;5051797;28;20463;-80
2023/04/25 07:42:02;;;;;;;15.10;7.85;;;;;;;14.60;71.34;94323.84;5055286;28;20044;-82
2023/04/25 07:44:27;;;;;;;11.65;7.97;;;;;;;15.16;70.09;94399.34;5047626;28;20614;-81
2023/04/25 07:46:53;;;;;;;13.35;7.82;;;;;;;15.12;70.87;94361.00;5055169;28;20040;-81
2023/04/25 07:49:18;;;;;;;12.13;8.23;;;;;;;15.29;70.10;94398.31;5049254;28;20079;-81
2023/04/25 07:51:44;;;;;;;16.73;8.27;;;;;;;15.23;70.14;94350.75;5049818;28;20053;-82
2023/04/25 07:54:12;;;;;;;12.43;7.75;;;;;;;15.15;69.64;94322.19;5053651;28;20703;-81
2023/04/25 07:56:37;;;;;;;11.35;7.38;;;;;;;15.22;69.76;94319.81;5057427;28;20116;-82
2023/04/25 07:59:03;;;;;;;13.23;7.72;;;;;;;15.36;70.74;94345.19;5049739;28;20445;-82
2023/04/25 08:01:28;;;;;;;15.25;8.43;;;;;;;15.34;69.25;94326.00;5055937;28;20043;-81
2023/04/25 08:03:54;;;;;;;17.38;8.73;;;;;;;15.65;68.48;94363.09;5050178;28;20036;-81
2023/04/25 08:06:19;;;;;;;12.35;8.10;;;;;;;15.69;69.29;94360.56;5051143;28;20046;-81
2023/04/25 08:08:45;;;;;;;13.20;8.10;;;;;;;15.68;69.54;94354.44;5056534;28;20609;-81
2023/04/25 08:11:10;;;;;;;14.75;7.32;;;;;;;15.73;69.72;94354.25;5059179;28;20047;-80
2023/04/25 08:13:36;;;;;;;21.17;7.68;;;;;;;15.24;70.84;94312.25;5059747;28;20173;-79
2023/04/25 08:16:02;;;;;;;13.43;7.30;;;;;;;15.74;69.72;94355.81;5056555;28;20031;-79
2023/04/25 08:18:27;;;;;;;15.70;7.20;;;;;;;15.67;68.16;94333.38;5057453;28;20079;-79
2023/04/25 08:20:53;;;;;;;16.42;6.63;;;;;;;15.82;68.10;94336.25;5051749;28;20066;-79
2023/04/25 08:23:18;;;;;;;12.77;7.30;;;;;;;16.00;67.77;94363.66;5056261;28;20999;-79
2023/04/25 08:25:43;;;;;;;9.18;5.43;;;;;;;16.09;67.68;94348.31;5059301;28;20063;-80
2023/04/25 08:28:09;;;;;;;17.40;6.57;;;;;;;15.86;66.04;94307.00;5057194;28;20100;-79
2023/04/25 08:30:36;;;;;;;12.95;7.60;;;;;;;16.11;65.01;94343.41;5055665;28;20033;-78
2023/04/25 08:33:02;;;;;;;8.90;5.30;;;;;;;15.95;62.06;94336.31;5055860;28;20045;-78
2023/04/25 08:35:28;;;;;;;7.50;5.00;;;;;;;16.17;61.69;94352.03;5062112;28;20035;-81
2023/04/25 08:37:53;;;;;;;13.90;5.55;;;;;;;16.17;62.96;94360.06;5062834;28;20053;-80
2023/04/25 08:40:25;;;;;;;9.50;4.63;;;;;;;16.11;62.78;94340.72;5064399;28;20036;-80
2023/04/25 08:42:53;;;;;;;12.32;4.75;;;;;;;15.39;63.29;94283.09;5053236;28;20050;-79
2023/04/25 08:45:18;;;;;;;10.20;5.05;;;;;;;15.51;63.25;94354.53;5056240;28;20033;-78
2023/04/25 08:47:45;;;;;;;23.40;13.07;;;;;;;14.44;71.72;94325.44;5063391;28;20477;-80
2023/04/25 08:50:11;;;;;;;15.95;11.02;;;;;;;13.27;74.75;94267.03;5052498;28;20040;-80
2023/04/25 08:52:46;;;;;;;19.45;12.23;;;;;;;13.83;77.15;94370.00;5049319;28;20113;-79
2023/04/25 08:55:13;;;;;;;21.10;11.48;;;;;;;13.70;75.07;94356.84;5076398;28;20032;-81
2023/04/25 08:57:42;;;;;;;21.40;12.35;;;;;;;14.07;76.54;94374.09;5055819;28;20051;-80
2023/04/25 09:00:09;;;;;;;18.90;13.43;;;;;;;14.05;78.57;94345.09;5055049;28;20459;-83
2023/04/25 09:02:35;;;;;;;23.83;15.05;;;;;;;14.64;78.69;94374.69;5056673;28;20032;-81
2023/04/25 09:05:04;;;;;;;27.42;14.95;;;;;;;14.75;79.31;94351.09;5059351;28;20111;-80
2023/04/25 09:07:29;;;;;;;20.30;11.18;;;;;;;14.99;77.96;94362.78;5051841;28;20513;-80
2023/04/25 09:09:55;;;;;;;23.25;11.63;;;;;;;15.11;76.53;94354.09;5052424;28;20049;-80
2023/04/25 09:12:21;;;;;;;14.88;10.48;;;;;;;15.33;75.74;94350.41;5055178;28;20382;-81
2023/04/25 09:15:06;;;;;;;17.67;10.30;;;;;;;15.41;74.82;94330.84;5056591;28;20522;-80
2023/04/25 09:17:32;;;;;;;16.23;9.13;;;;;;;15.26;73.77;94296.66;5053747;28;20416;-79
2023/04/25 09:20:13;;;;;;;14.60;8.77;;;;;;;15.41;73.16;94304.13;5058088;28;20043;-79
2023/04/25 09:22:38;;;;;;;12.90;8.33;;;;;;;15.82;71.85;94338.16;5059427;28;20105;-78
2023/04/25 09:25:11;;;;;;;14.27;7.60;;;;;;;15.98;71.42;94331.09;5056619;28;20121;-79
2023/04/25 09:27:50;;;;;;;10.38;6.05;;;;;;;15.44;69.32;94250.81;5058276;28;20039;-79
2023/04/25 09:30:16;;;;;;;9.82;5.85;;;;;;;16.27;68.95;94332.09;5054905;28;20163;-79
2023/04/25 09:32:43;;;;;;;12.90;6.80;;;;;;;16.23;68.68;94304.47;5056313;28;20032;-82
2023/04/25 09:35:09;;;;;;;7.38;4.57;;;;;;;16.19;68.31;94289.06;5060038;28;20036;-79
2023/04/25 09:37:35;;;;;;;5.75;3.33;;;;;;;15.84;63.76;94229.00;5049306;28;20050;-78
2023/04/25 09:40:05;;;;;;;5.18;3.38;;;;;;;16.51;63.29;94335.66;5049889;28;20067;-78
2023/04/25 09:42:34;;;;;;;9.43;3.70;;;;;;;16.07;63.38;94251.56;5052690;28;20036;-79
2023/04/25 09:45:01;;;;;;;7.20;4.22;;;;;;;16.57;62.33;94307.53;5059151;28;20068;-80
2023/04/25 09:47:28;;;;;;;8.35;5.13;;;;;;;16.66;64.50;94302.13;5062103;28;20112;-81
2023/04/25 09:49:54;;;;;;;14.52;5.25;;;;;;;16.52;63.58;94238.19;5055092;28;20024;-81
2023/04/25 09:52:24;;;;;;;13.60;5.97;;;;;;;17.45;65.21;94279.38;5060262;28;20036;-84
2023/04/25 09:54:51;;;;;;;48.05;8.13;;;;;;;18.47;66.18;94339.75;5057030;28;20032;-82
2023/04/25 09:57:17;;;;;;;39.78;7.38;;;;;;;18.94;63.26;94334.47;5064166;28;20040;-81
2023/04/25 09:59:45;;;;;;;35.17;6.97;;;;;;;19.48;59.63;94341.94;5056003;28;20426;-81
2023/04/25 10:02:12;;;;;;;32.78;6.32;;;;;;;19.97;58.71;94336.88;5064777;28;20519;-83
2023/04/25 10:04:38;;;;;;;33.47;7.15;;;;;;;19.66;56.16;94308.16;5065589;28;20028;-80
2023/04/25 10:07:06;;;;;;;31.10;6.47;;;;;;;19.92;58.27;94284.09;5061330;28;20055;-82
2023/04/25 10:09:33;;;;;;;24.90;5.65;;;;;;;19.55;56.21;94259.50;5059910;28;20058;-81
2023/04/25 10:12:00;;;;;;;8.52;4.22;;;;;;;20.10;54.60;94332.13;5063428;28;20119;-82
2023/04/25 10:14:26;;;;;;;11.18;4.60;;;;;;;19.61;55.04;94309.19;5056369;28;20066;-80
2023/04/25 10:16:54;;;;;;;7.03;4.60;;;;;;;19.35;55.33;94298.22;5057715;28;20034;-81
2023/04/25 10:19:20;;;;;;;8.15;4.05;;;;;;;19.14;55.42;94287.78;5061176;28;20096;-81
2023/04/25 10:21:54;;;;;;;11.40;4.50;;;;;;;18.39;55.23;94295.03;5056614;28;20101;-81
2023/04/25 10:24:20;;;;;;;12.55;3.53;;;;;;;15.96;56.80;94222.88;5048174;28;20094;-83
2023/04/25 10:26:47;;;;;;;2.63;1.10;;;;;;;15.84;55.22;94322.56;5055937;28;20033;-79
2023/04/25 10:29:12;;;;;;;4.50;1.45;;;;;;;15.82;62.73;94269.41;5043642;28;20039;-80
2023/04/25 10:31:46;;;;;;;5.72;2.10;;;;;;;16.47;75.99;94285.78;5043846;28;20526;-78
2023/04/25 10:34:12;;;;;;;11.68;3.22;;;;;;;17.28;85.26;94317.91;5055633;28;20344;-79
2023/04/25 10:36:37;;;;;;;48.95;5.53;;;;;;;17.78;92.26;94281.88;5056418;28;20032;-79
2023/04/25 10:39:09;;;;;;;5.13;3.25;;;;;;;18.20;89.58;94290.34;5047332;28;20040;-79
2023/04/25 10:42:02;;;;;;;5.80;2.63;;;;;;;17.67;66.70;94334.44;5051875;28;20035;-79
2023/04/25 10:44:29;;;;;;;4.18;2.28;;;;;;;16.94;65.29;94324.47;5065130;28;21202;-79
2023/04/25 10:47:03;;;;;;;9.35;2.25;;;;;;;16.45;70.13;94334.28;5056081;28;20669;-79
2023/04/25 10:49:32;;;;;;;4.53;2.03;;;;;;;16.78;72.10;94333.50;5051011;28;20123;-78
2023/04/25 10:52:22;;;;;;;5.35;1.75;;;;;;;16.73;68.65;94309.63;5051938;28;20051;-78
2023/04/25 10:54:51;;;;;;;5.70;1.80;;;;;;;17.34;76.90;94303.16;5053583;28;20078;-79
2023/04/25 10:57:33;;;;;;;2.08;1.48;;;;;;;17.37;72.26;94323.16;5053933;28;20056;-79
2023/04/25 11:00:29;;;;;;;4.32;1.88;;;;;;;17.12;62.35;94322.38;5052918;28;20119;-79
2023/04/25 11:02:59;;;;;;;4.75;1.75;;;;;;;16.47;61.32;94286.59;5048019;28;20052;-78
2023/04/25 11:05:33;;;;;;;4.00;2.05;;;;;;;16.94;71.52;94270.13;5050885;28;20047;-79
2023/04/25 11:08:00;;;;;;;7.40;2.60;;;;;;;16.97;63.41;94283.66;5050662;28;20028;-79
2023/04/25 11:10:31;;;;;;;7.40;1.90;;;;;;;17.44;65.98;94309.19;5058035;28;20064;-79
2023/04/25 11:12:58;;;;;;;12.02;2.78;;;;;;;17.91;68.75;94304.09;5045907;28;20562;-79
2023/04/25 11:15:24;;;;;;;10.40;2.03;;;;;;;18.28;66.12;94302.81;5042950;28;20036;-82
2023/04/25 11:17:55;;;;;;;22.02;3.97;;;;;;;17.87;61.25;94257.59;5052113;28;20039;-80
2023/04/25 11:20:21;;;;;;;24.98;3.88;;;;;;;18.31;59.53;94294.06;5053566;28;20085;-81
2023/04/25 11:22:47;;;;;;;5.05;1.92;;;;;;;18.17;57.25;94256.13;5046675;28;20028;-80
2023/04/25 11:25:15;;;;;;;18.45;3.58;;;;;;;17.79;55.20;94237.84;5050858;28;20064;-79